createdAt,value
2023-10-06T00:05:59.161Z,75
2023-10-06T00:16:09.310Z,76
2023-10-06T00:26:19.130Z,75
2023-10-06T00:36:29.110Z,76
2023-10-06T00:46:39.037Z,76
2023-10-06T00:56:39.109Z,77
2023-10-06T01:06:39.290Z,77
2023-10-06T01:16:49.351Z,76
2023-10-06T01:26:49.479Z,77
2023-10-06T01:36:49.362Z,76
2023-10-06T01:46:59.252Z,76
2023-10-06T01:57:09.075Z,77
2023-10-06T02:07:18.941Z,77
2023-10-06T02:17:28.817Z,77
2023-10-06T02:27:38.616Z,77
2023-10-06T02:37:48.592Z,77
2023-10-06T02:47:48.957Z,78
2023-10-06T02:57:58.600Z,78
2023-10-06T03:08:08.651Z,78
2023-10-06T03:18:18.585Z,79
2023-10-06T03:28:18.320Z,79
2023-10-06T03:38:28.230Z,79
2023-10-06T03:48:39.238Z,79
2023-10-06T03:58:39.147Z,79
2023-10-06T04:08:48.973Z,78
2023-10-06T04:18:58.839Z,79
2023-10-06T04:29:01.159Z,78
2023-10-06T04:39:11.311Z,79
2023-10-06T04:49:21.089Z,80
2023-10-06T04:59:33.878Z,80
2023-10-06T05:09:33.865Z,80
2023-10-06T05:19:43.956Z,80
2023-10-06T05:29:44.023Z,79
2023-10-06T05:39:43.933Z,79
2023-10-06T05:49:44.334Z,79
2023-10-06T05:59:44.198Z,79
2023-10-06T06:09:54.377Z,79
2023-10-06T06:19:56.715Z,79
2023-10-06T06:30:04.114Z,79
2023-10-06T06:40:04.832Z,79
2023-10-06T06:50:04.920Z,79
2023-10-06T07:00:14.390Z,79
2023-10-06T07:10:15.541Z,78
2023-10-06T07:20:15.924Z,78
2023-10-06T07:30:16.010Z,78
2023-10-06T07:40:27.135Z,78
2023-10-06T07:50:35.743Z,76
2023-10-06T08:00:32.939Z,73
2023-10-06T08:10:32.961Z,70
2023-10-06T08:20:33.995Z,67
2023-10-06T08:30:35.608Z,65
2023-10-06T08:40:36.803Z,64
2023-10-06T08:50:36.928Z,62
2023-10-06T09:30:53.676Z,59
2023-10-06T09:41:03.457Z,57
2023-10-06T09:51:06.728Z,55
2023-10-06T10:01:06.885Z,53
2023-10-06T10:11:07.874Z,53
2023-10-06T10:21:08.983Z,53
2023-10-06T10:31:09.597Z,53
2023-10-06T10:41:09.606Z,53
2023-10-06T10:51:11.027Z,54
2023-10-06T11:01:11.273Z,56
2023-10-06T11:11:11.300Z,55
2023-10-06T11:21:12.608Z,57
2023-10-06T11:31:12.907Z,55
2023-10-06T11:41:12.872Z,55
2023-10-06T11:51:22.724Z,54
2023-10-06T12:01:22.883Z,55
2023-10-06T12:11:22.909Z,57
2023-10-06T12:21:32.908Z,56
2023-10-06T12:31:42.626Z,57
2023-10-06T12:41:42.910Z,57
2023-10-06T12:51:44.545Z,57
2023-10-06T13:01:46.523Z,57
2023-10-06T13:11:45.445Z,57
2023-10-06T13:21:45.485Z,57
2023-10-06T13:31:45.760Z,57
2023-10-06T13:41:45.801Z,60
2023-10-06T13:51:56.266Z,58
2023-10-06T14:01:56.733Z,58
2023-10-06T14:11:56.994Z,58
2023-10-06T14:22:06.523Z,59
2023-10-06T14:32:06.717Z,58
2023-10-06T14:42:06.903Z,58
2023-10-06T14:52:07.228Z,59
2023-10-06T15:02:08.932Z,58
2023-10-06T15:12:18.942Z,58
2023-10-06T15:22:25.595Z,59
2023-10-06T15:32:25.614Z,59
2023-10-06T15:42:29.531Z,59
2023-10-06T15:52:35.491Z,60
2023-10-06T16:02:35.335Z,60
2023-10-06T16:12:35.684Z,61
2023-10-06T16:22:35.783Z,62
2023-10-06T16:32:35.724Z,62
2023-10-06T16:42:37.679Z,62
2023-10-06T16:52:39.263Z,63
2023-10-06T17:02:39.446Z,64
2023-10-06T17:12:42.586Z,65
2023-10-06T17:22:43.847Z,66
2023-10-06T17:32:44.167Z,66
2023-10-06T17:42:44.397Z,67
2023-10-06T17:52:44.759Z,68
2023-10-06T18:02:45.594Z,67
2023-10-06T18:12:46.673Z,66
2023-10-06T18:22:51.436Z,67
2023-10-06T18:32:51.941Z,67
2023-10-06T18:42:54.576Z,67
2023-10-06T18:52:56.261Z,68
2023-10-06T19:02:59.120Z,67
2023-10-06T19:13:06.092Z,66
2023-10-06T19:23:11.320Z,67
2023-10-06T19:33:15.758Z,67
2023-10-06T19:43:20.231Z,68
2023-10-06T19:53:20.309Z,68
2023-10-06T20:03:27.338Z,68
2023-10-06T20:13:28.686Z,69
2023-10-06T20:23:29.417Z,70
2023-10-06T20:33:30.060Z,71
2023-10-06T20:43:37.136Z,71
2023-10-06T20:53:41.127Z,71
2023-10-06T21:03:46.076Z,71
2023-10-06T21:13:52.019Z,71
2023-10-06T21:23:57.944Z,70
2023-10-06T21:34:01.479Z,71
2023-10-06T21:44:07.998Z,71
2023-10-06T21:54:15.804Z,71
2023-10-06T22:04:19.560Z,71
2023-10-06T22:14:28.469Z,71
2023-10-06T22:24:31.952Z,72
2023-10-06T22:34:38.467Z,72
2023-10-06T22:44:38.876Z,72
2023-10-06T22:54:39.082Z,72
2023-10-06T23:04:39.215Z,73
2023-10-06T23:14:39.218Z,73
2023-10-06T23:24:49.434Z,73
2023-10-06T23:34:55.265Z,73
2023-10-06T23:45:01.722Z,73
2023-10-06T23:55:08.626Z,74
